Time;durP1;ratioP1;P1;durP2;ratioP2;P2;SDS_P1;SDS_P2;PMS_P1;PMS_P2;Temp;Humidity;BMP_temperature;BMP_pressure;BME280_temperature;BME280_humidity;BME280_pressure;Samples;Min_cycle;Max_cycle;Signal;HPM_P1;HPM_P2
2021/06/01 00:00:33;;;;;;;7.07;4.38;;;12.50;60.00;;;;;;5082937;28;20088;-41
2021/06/01 00:02:58;;;;;;;5.60;4.15;;;12.50;60.40;;;;;;5085304;28;20024;-42
2021/06/01 00:05:24;;;;;;;7.88;4.40;;;12.50;60.20;;;;;;5084132;28;20067;-41
2021/06/01 00:07:50;;;;;;;9.32;4.25;;;12.40;60.50;;;;;;5083755;28;20347;-42
2021/06/01 00:10:15;;;;;;;5.85;4.50;;;12.40;60.20;;;;;;5083640;28;20048;-41
2021/06/01 00:12:41;;;;;;;6.65;4.30;;;12.40;60.50;;;;;;5083479;28;20044;-42
2021/06/01 00:15:09;;;;;;;7.30;4.50;;;12.40;60.70;;;;;;5085307;28;20040;-39
2021/06/01 00:17:34;;;;;;;5.65;4.40;;;12.40;60.80;;;;;;5083917;28;20044;-38
2021/06/01 00:20:00;;;;;;;7.18;4.50;;;12.40;60.90;;;;;;5083699;28;20048;-38
2021/06/01 00:22:26;;;;;;;6.22;4.45;;;12.40;61.00;;;;;;5083201;28;20059;-38
2021/06/01 00:24:51;;;;;;;7.20;4.72;;;12.40;61.10;;;;;;5083228;28;20082;-38
2021/06/01 00:27:17;;;;;;;5.20;4.28;;;12.30;61.10;;;;;;5085340;28;20036;-39
2021/06/01 00:29:42;;;;;;;8.82;4.50;;;12.30;61.10;;;;;;5084010;28;20036;-38
2021/06/01 00:32:08;;;;;;;5.40;4.50;;;12.20;61.10;;;;;;5083164;28;20039;-38
2021/06/01 00:34:33;;;;;;;7.28;4.30;;;12.10;61.30;;;;;;5083432;28;20037;-38
2021/06/01 00:36:59;;;;;;;6.07;4.55;;;12.10;61.70;;;;;;5082992;28;20098;-38
2021/06/01 00:39:24;;;;;;;6.10;4.50;;;12.00;61.80;;;;;;5081805;28;20344;-38
2021/06/01 00:41:50;;;;;;;5.60;4.60;;;12.00;62.20;;;;;;5084907;28;20066;-38
2021/06/01 00:44:15;;;;;;;6.82;4.40;;;12.00;62.20;;;;;;5083062;28;20099;-38
2021/06/01 00:46:41;;;;;;;5.45;4.18;;;11.90;62.40;;;;;;5082882;28;20032;-38
2021/06/01 00:49:06;;;;;;;5.22;4.53;;;11.90;62.40;;;;;;5082689;28;20103;-38
2021/06/01 00:51:32;;;;;;;7.00;4.90;;;11.90;62.70;;;;;;5081983;28;20036;-38
2021/06/01 00:53:57;;;;;;;6.03;4.10;;;11.80;62.90;;;;;;5084653;28;20363;-39
2021/06/01 00:56:23;;;;;;;6.05;4.50;;;11.90;62.80;;;;;;5083155;28;20047;-38
2021/06/01 00:58:49;;;;;;;5.55;4.47;;;11.90;62.60;;;;;;5082432;28;20032;-38
2021/06/01 01:01:20;;;;;;;5.50;4.22;;;11.80;62.40;;;;;;5082762;28;20038;-38
2021/06/01 01:03:46;;;;;;;7.07;4.75;;;11.80;62.10;;;;;;5082865;28;20032;-38
2021/06/01 01:06:19;;;;;;;6.45;4.60;;;11.70;62.30;;;;;;5083452;28;20033;-38
2021/06/01 01:08:49;;;;;;;6.43;4.45;;;11.80;62.50;;;;;;5083448;28;20066;-39
2021/06/01 01:11:33;;;;;;;6.93;4.68;;;11.70;62.60;;;;;;5081992;28;20036;-38
2021/06/01 01:14:38;;;;;;;6.30;4.22;;;11.70;62.80;;;;;;5082763;28;20036;-38
2021/06/01 01:17:13;;;;;;;7.63;5.00;;;11.60;62.70;;;;;;5082294;28;20028;-39
2021/06/01 01:19:52;;;;;;;6.28;4.68;;;11.60;63.00;;;;;;5081622;28;20043;-38
2021/06/01 01:22:18;;;;;;;5.95;4.43;;;11.60;62.90;;;;;;5081598;28;20071;-38
2021/06/01 01:24:48;;;;;;;6.53;4.97;;;11.50;62.90;;;;;;5081713;28;20025;-38
2021/06/01 01:27:15;;;;;;;7.45;4.55;;;11.40;63.00;;;;;;5083351;28;20312;-38
2021/06/01 01:29:45;;;;;;;6.10;4.30;;;11.40;62.90;;;;;;5082884;28;20036;-38
2021/06/01 01:32:36;;;;;;;5.88;4.78;;;11.30;63.10;;;;;;5081656;28;20039;-38
2021/06/01 01:35:03;;;;;;;6.85;4.55;;;11.30;63.20;;;;;;5081417;28;20039;-38
2021/06/01 01:37:29;;;;;;;5.45;4.45;;;11.30;63.20;;;;;;5081336;28;20351;-38
2021/06/01 01:39:59;;;;;;;5.80;4.60;;;11.30;63.20;;;;;;5064626;28;20158;-38
2021/06/01 01:42:26;;;;;;;7.47;4.88;;;11.30;63.20;;;;;;5081219;28;20036;-38
2021/06/01 01:44:53;;;;;;;7.75;4.75;;;11.30;63.20;;;;;;5083114;28;20023;-38
2021/06/01 01:50:01;;;;;;;7.47;4.80;;;11.20;63.40;;;;;;5081293;28;20041;-38
2021/06/01 01:52:27;;;;;;;6.20;4.60;;;11.20;63.30;;;;;;5081370;28;20036;-38
2021/06/01 01:54:56;;;;;;;6.70;4.90;;;11.10;63.30;;;;;;5082273;28;20045;-38
2021/06/01 01:57:22;;;;;;;6.30;4.90;;;11.00;63.40;;;;;;5081987;28;20044;-38
2021/06/01 01:59:47;;;;;;;7.07;4.95;;;10.90;63.90;;;;;;5082965;28;20036;-38
2021/06/01 02:02:13;;;;;;;7.50;4.25;;;11.00;63.90;;;;;;5080989;28;20060;-38
2021/06/01 02:04:39;;;;;;;8.10;4.45;;;11.00;63.80;;;;;;5081381;28;20036;-38
2021/06/01 02:07:04;;;;;;;8.32;4.35;;;11.10;64.00;;;;;;5081147;28;20029;-38
2021/06/01 02:09:30;;;;;;;6.88;4.85;;;11.00;64.00;;;;;;5081988;28;20044;-38
2021/06/01 02:11:55;;;;;;;6.40;4.85;;;11.00;64.00;;;;;;5087154;28;20308;-38
2021/06/01 02:14:21;;;;;;;7.03;4.75;;;11.00;63.90;;;;;;5085687;28;20032;-38
2021/06/01 02:16:47;;;;;;;7.13;4.70;;;10.90;63.90;;;;;;5086064;28;20100;-39
2021/06/01 02:19:15;;;;;;;5.13;4.03;;;10.80;64.00;;;;;;5085211;28;20078;-38
2021/06/01 02:24:34;;;;;;;5.43;4.70;;;10.80;64.00;;;;;;5085526;28;20029;-39
2021/06/01 02:27:20;;;;;;;8.70;4.72;;;10.80;64.20;;;;;;5087427;28;20051;-38
2021/06/01 02:30:18;;;;;;;5.95;4.35;;;10.80;63.80;;;;;;5086161;28;20031;-38
2021/06/01 02:32:49;;;;;;;5.70;4.45;;;10.70;64.00;;;;;;5085637;28;20032;-38
2021/06/01 02:35:38;;;;;;;6.13;4.32;;;10.80;64.00;;;;;;5085745;28;20036;-38
2021/06/01 02:38:05;;;;;;;7.00;4.97;;;10.60;64.30;;;;;;5084950;28;20213;-38
2021/06/01 02:40:30;;;;;;;8.50;4.88;;;10.60;64.40;;;;;;5085415;28;20033;-39
2021/06/01 02:42:57;;;;;;;6.85;4.70;;;10.70;64.40;;;;;;5083989;28;20378;-38
2021/06/01 02:45:23;;;;;;;6.45;4.80;;;10.70;64.20;;;;;;5085066;28;20028;-38
2021/06/01 02:47:49;;;;;;;5.97;4.80;;;10.70;64.10;;;;;;5085994;28;20029;-39
2021/06/01 02:50:15;;;;;;;6.30;4.78;;;10.60;64.20;;;;;;5085483;28;20044;-38
2021/06/01 02:52:41;;;;;;;6.85;5.13;;;10.60;64.30;;;;;;5083822;28;20042;-38
2021/06/01 02:55:09;;;;;;;6.22;4.40;;;10.60;64.40;;;;;;5085083;28;20037;-38
2021/06/01 02:57:36;;;;;;;10.10;5.38;;;10.50;64.50;;;;;;5084767;28;20051;-38
2021/06/01 03:00:01;;;;;;;5.93;4.55;;;10.50;64.40;;;;;;5085741;28;20080;-38
2021/06/01 03:02:28;;;;;;;7.43;4.38;;;10.50;64.50;;;;;;5085070;28;20337;-38
2021/06/01 03:04:54;;;;;;;9.05;4.93;;;10.40;64.60;;;;;;5084769;28;20346;-38
2021/06/01 03:07:19;;;;;;;9.50;5.18;;;10.50;64.40;;;;;;5083569;28;20037;-38
2021/06/01 03:09:45;;;;;;;9.10;5.65;;;10.50;64.20;;;;;;5085073;28;20083;-38
2021/06/01 03:14:52;;;;;;;;;;;10.40;64.10;;;;;;5085082;28;20320;-38
2021/06/01 03:17:17;;;;;;;6.03;4.80;;;10.40;64.10;;;;;;5085075;28;19912;-39
2021/06/01 03:19:43;;;;;;;8.63;4.88;;;10.40;64.10;;;;;;5084551;28;20116;-38
2021/06/01 03:22:08;;;;;;;7.80;5.05;;;10.30;64.10;;;;;;5084689;28;20052;-38
2021/06/01 03:24:34;;;;;;;7.28;4.75;;;10.30;64.10;;;;;;5084459;28;20028;-38
2021/06/01 03:27:00;;;;;;;7.00;4.85;;;10.30;64.30;;;;;;5086260;28;20197;-38
2021/06/01 03:29:25;;;;;;;5.85;4.55;;;10.30;64.40;;;;;;5084598;28;20037;-39
2021/06/01 03:31:51;;;;;;;7.03;4.82;;;10.30;64.30;;;;;;5084148;28;20263;-38
2021/06/01 03:34:17;;;;;;;7.68;4.32;;;10.30;64.40;;;;;;5084113;28;20382;-38
2021/06/01 03:36:42;;;;;;;6.70;4.90;;;10.40;64.40;;;;;;5084381;28;20032;-38
2021/06/01 03:39:08;;;;;;;7.10;4.90;;;10.40;64.40;;;;;;5085858;28;20051;-38
2021/06/01 03:41:35;;;;;;;7.30;4.95;;;10.40;64.50;;;;;;5084248;28;20105;-38
2021/06/01 03:44:01;;;;;;;11.00;4.97;;;10.40;64.60;;;;;;5084247;28;20041;-38
2021/06/01 03:46:26;;;;;;;8.98;5.18;;;10.40;64.70;;;;;;5084104;28;20070;-38
2021/06/01 03:48:52;;;;;;;6.22;4.93;;;10.30;64.90;;;;;;5083770;28;20212;-38
2021/06/01 03:51:17;;;;;;;7.18;5.15;;;10.30;64.90;;;;;;5084170;28;20212;-39
2021/06/01 03:53:43;;;;;;;11.38;5.53;;;10.30;64.90;;;;;;5085683;28;20083;-38
2021/06/01 03:56:08;;;;;;;5.90;4.50;;;10.30;65.10;;;;;;5083991;28;20040;-39
2021/06/01 03:58:34;;;;;;;5.70;4.65;;;10.30;65.10;;;;;;5083917;28;20045;-38
2021/06/01 04:00:59;;;;;;;7.43;4.72;;;10.30;65.20;;;;;;5083457;28;20040;-38
2021/06/01 04:03:25;;;;;;;6.10;4.35;;;10.40;65.10;;;;;;5084034;28;20034;-39
2021/06/01 04:05:50;;;;;;;7.03;5.18;;;10.40;65.20;;;;;;5085208;28;20036;-38
2021/06/01 04:08:16;;;;;;;7.40;5.18;;;10.40;65.30;;;;;;5082782;28;20220;-39
2021/06/01 04:10:41;;;;;;;7.43;4.88;;;10.40;65.40;;;;;;5083440;28;20359;-38
2021/06/01 04:13:07;;;;;;;8.60;5.07;;;10.40;65.40;;;;;;5065322;28;20043;-39
2021/06/01 04:15:32;;;;;;;8.20;5.22;;;10.40;65.50;;;;;;5083420;28;20028;-38
2021/06/01 04:17:58;;;;;;;12.43;5.65;;;10.40;65.50;;;;;;5085260;28;20032;-38
2021/06/01 04:20:24;;;;;;;11.43;5.45;;;10.40;65.50;;;;;;5083635;28;20036;-39
2021/06/01 04:22:50;;;;;;;7.45;5.43;;;10.50;65.40;;;;;;5082953;28;20044;-39
2021/06/01 04:25:16;;;;;;;11.77;5.25;;;10.50;65.80;;;;;;5083125;28;20040;-38
2021/06/01 04:27:41;;;;;;;11.07;5.25;;;10.50;66.00;;;;;;5083341;28;20343;-38
2021/06/01 04:30:08;;;;;;;7.72;5.05;;;10.60;65.50;;;;;;5084968;28;20028;-38
2021/06/01 04:32:33;;;;;;;10.27;5.05;;;10.60;65.80;;;;;;5083225;28;20028;-38
2021/06/01 04:34:59;;;;;;;8.35;5.18;;;10.70;66.00;;;;;;5083087;28;20028;-38
2021/06/01 04:37:24;;;;;;;6.78;5.30;;;10.70;65.90;;;;;;5082817;28;20244;-38
2021/06/01 04:39:50;;;;;;;7.70;5.40;;;10.70;66.00;;;;;;5081865;28;20048;-38
2021/06/01 04:42:15;;;;;;;9.10;5.32;;;10.80;66.00;;;;;;5084637;28;20039;-38
2021/06/01 04:44:41;;;;;;;7.55;5.03;;;10.80;66.20;;;;;;5083158;28;20037;-38
2021/06/01 04:47:07;;;;;;;8.20;4.95;;;10.80;65.70;;;;;;5083207;28;20052;-39
2021/06/01 04:49:32;;;;;;;7.50;4.95;;;10.80;65.30;;;;;;5082653;28;20072;-38
2021/06/01 04:51:58;;;;;;;8.23;5.47;;;10.90;65.30;;;;;;5082995;28;20043;-39
2021/06/01 04:54:23;;;;;;;8.02;4.95;;;10.90;65.10;;;;;;5082898;28;20024;-38
2021/06/01 04:56:49;;;;;;;11.38;5.55;;;11.00;65.10;;;;;;5084621;28;20058;-38
2021/06/01 04:59:14;;;;;;;11.10;5.47;;;11.00;65.30;;;;;;5083233;28;20316;-38
2021/06/01 05:01:40;;;;;;;7.22;5.40;;;11.10;65.00;;;;;;5082531;28;20287;-38
2021/06/01 05:04:06;;;;;;;7.18;5.38;;;11.10;65.20;;;;;;5082697;28;20029;-38
2021/06/01 05:06:32;;;;;;;8.85;5.47;;;11.20;66.10;;;;;;5082557;28;20051;-39
2021/06/01 05:08:57;;;;;;;9.27;5.40;;;11.20;65.90;;;;;;5084492;28;20048;-38
2021/06/01 05:11:23;;;;;;;8.40;5.20;;;11.30;66.10;;;;;;5082735;28;20081;-39
2021/06/01 05:13:49;;;;;;;9.52;5.50;;;11.30;65.80;;;;;;5082717;28;20259;-38
2021/06/01 05:16:14;;;;;;;6.85;5.10;;;11.40;66.30;;;;;;5082707;28;20036;-38
2021/06/01 05:18:41;;;;;;;9.73;4.72;;;11.50;66.50;;;;;;5082255;28;20032;-38
2021/06/01 05:21:06;;;;;;;7.38;4.68;;;11.50;65.90;;;;;;5084333;28;20071;-39
2021/06/01 05:23:33;;;;;;;7.30;4.18;;;11.60;65.40;;;;;;5082851;28;20332;-38
2021/06/01 05:25:58;;;;;;;9.32;4.30;;;11.60;65.00;;;;;;5082751;28;20033;-38
2021/06/01 05:28:24;;;;;;;6.10;3.85;;;11.70;63.90;;;;;;5081525;28;20040;-38
2021/06/01 05:35:46;;;;;;;6.35;4.47;;;12.00;63.60;;;;;;5082373;28;20064;-38
2021/06/01 05:38:11;;;;;;;8.48;4.78;;;12.10;63.90;;;;;;5082640;28;20112;-39
2021/06/01 05:40:37;;;;;;;5.72;4.22;;;12.10;64.00;;;;;;5082434;28;20033;-38
2021/06/01 05:43:03;;;;;;;6.10;4.55;;;12.20;63.80;;;;;;5082648;28;20031;-39
2021/06/01 05:45:28;;;;;;;7.72;4.70;;;12.30;63.50;;;;;;5083556;28;20028;-39
2021/06/01 05:47:54;;;;;;;7.03;4.80;;;12.40;63.30;;;;;;5087695;28;20020;-38
2021/06/01 05:50:19;;;;;;;7.20;4.50;;;12.40;63.20;;;;;;5086569;28;20302;-39
2021/06/01 05:52:45;;;;;;;10.57;4.82;;;12.50;63.10;;;;;;5086052;28;20036;-39
2021/06/01 05:55:11;;;;;;;6.00;4.18;;;12.50;62.80;;;;;;5086470;28;20090;-39
2021/06/01 05:57:36;;;;;;;6.07;4.53;;;12.60;62.80;;;;;;5085967;28;20067;-38
2021/06/01 06:00:05;;;;;;;6.22;4.30;;;12.70;62.60;;;;;;5087444;28;20030;-39
2021/06/01 06:02:30;;;;;;;7.68;4.30;;;12.80;62.00;;;;;;5086317;28;20364;-39
2021/06/01 06:04:56;;;;;;;6.15;4.03;;;12.80;61.80;;;;;;5086278;28;20043;-39
2021/06/01 06:07:21;;;;;;;8.20;3.30;;;12.90;61.80;;;;;;5084377;28;20047;-39
2021/06/01 06:09:47;;;;;;;7.65;3.95;;;13.00;60.00;;;;;;5085977;28;20217;-39
2021/06/01 06:12:13;;;;;;;5.25;3.38;;;13.00;59.70;;;;;;5087438;28;20032;-39
2021/06/01 06:14:38;;;;;;;5.78;3.38;;;13.10;59.40;;;;;;5085867;28;20363;-39
2021/06/01 06:17:11;;;;;;;5.13;3.60;;;13.10;58.00;;;;;;5085875;28;20253;-39
2021/06/01 06:19:42;;;;;;;6.88;3.38;;;13.10;57.30;;;;;;5085451;28;20032;-39
2021/06/01 06:22:08;;;;;;;7.05;3.58;;;13.20;57.30;;;;;;5085704;28;20242;-39
2021/06/01 06:24:34;;;;;;;5.68;3.25;;;13.30;57.80;;;;;;5085323;28;20028;-39
2021/06/01 06:27:00;;;;;;;4.35;3.20;;;13.40;57.50;;;;;;5087338;28;20084;-39
2021/06/01 06:29:25;;;;;;;8.13;3.38;;;13.60;57.00;;;;;;5085396;28;20039;-38
2021/06/01 06:31:51;;;;;;;4.70;3.08;;;13.50;56.60;;;;;;5085293;28;20078;-39
2021/06/01 06:34:16;;;;;;;5.22;2.92;;;13.70;56.90;;;;;;5085072;28;20040;-39
2021/06/01 06:36:42;;;;;;;6.65;3.10;;;13.80;56.40;;;;;;5085166;28;20074;-39
2021/06/01 06:39:09;;;;;;;4.57;3.00;;;13.90;56.20;;;;;;5086561;28;20194;-38
2021/06/01 06:41:34;;;;;;;6.40;3.78;;;14.00;55.40;;;;;;5085379;28;20348;-39
2021/06/01 06:44:00;;;;;;;7.38;2.80;;;14.10;55.40;;;;;;5085587;28;20033;-39
2021/06/01 06:46:27;;;;;;;6.47;3.17;;;14.30;55.10;;;;;;5085009;28;20047;-39
2021/06/01 06:48:53;;;;;;;7.18;3.20;;;14.30;55.00;;;;;;5085070;28;20092;-39
2021/06/01 06:51:19;;;;;;;4.90;3.20;;;14.40;53.20;;;;;;5085146;28;20047;-39
2021/06/01 06:53:53;;;;;;;10.18;2.80;;;14.50;53.20;;;;;;5086475;28;20032;-39
2021/06/01 06:56:20;;;;;;;8.25;3.00;;;14.60;53.80;;;;;;5084957;28;20059;-39
2021/06/01 06:58:45;;;;;;;4.97;3.20;;;14.80;52.40;;;;;;5085221;28;20212;-39
2021/06/01 07:01:11;;;;;;;4.25;3.00;;;14.80;51.70;;;;;;5085078;28;20099;-39
2021/06/01 07:03:37;;;;;;;6.53;3.25;;;14.90;51.50;;;;;;5084735;28;20219;-38
2021/06/01 07:06:03;;;;;;;3.92;2.95;;;15.00;51.40;;;;;;5086553;28;20036;-39
2021/06/01 07:08:28;;;;;;;4.15;2.92;;;15.20;52.50;;;;;;5084704;28;20028;-39
2021/06/01 07:10:54;;;;;;;4.60;3.00;;;15.30;51.00;;;;;;5084650;28;20029;-39
2021/06/01 07:13:20;;;;;;;6.82;3.33;;;15.40;51.20;;;;;;5085162;28;20032;-38
2021/06/01 07:15:47;;;;;;;4.30;3.28;;;15.50;51.30;;;;;;5083534;28;20336;-39
2021/06/01 07:18:14;;;;;;;4.65;2.88;;;15.60;49.50;;;;;;5085237;28;20091;-39
2021/06/01 07:20:39;;;;;;;5.75;2.75;;;15.70;48.50;;;;;;5084512;28;20040;-39
2021/06/01 07:23:05;;;;;;;4.75;3.20;;;15.80;48.00;;;;;;5084357;28;20102;-39
2021/06/01 07:25:31;;;;;;;5.80;2.97;;;15.80;46.60;;;;;;5084322;28;20036;-39
2021/06/01 07:27:56;;;;;;;6.55;3.20;;;15.90;46.60;;;;;;5084305;28;20032;-40
2021/06/01 07:30:22;;;;;;;5.07;3.30;;;16.10;46.70;;;;;;5082912;28;20084;-39
2021/06/01 07:32:48;;;;;;;5.90;3.10;;;16.20;46.80;;;;;;5086111;28;20323;-39
2021/06/01 07:35:14;;;;;;;5.55;3.08;;;16.30;45.70;;;;;;5084739;28;20136;-39
2021/06/01 07:37:39;;;;;;;5.45;3.20;;;16.50;46.80;;;;;;5084548;28;20043;-39
2021/06/01 07:40:06;;;;;;;6.18;3.33;;;16.60;45.90;;;;;;5084194;28;20032;-39
2021/06/01 07:42:31;;;;;;;4.40;3.40;;;16.80;45.20;;;;;;5084175;28;20028;-39
2021/06/01 07:44:57;;;;;;;6.05;3.03;;;16.80;44.40;;;;;;5085957;28;20084;-39
2021/06/01 07:47:23;;;;;;;8.85;3.00;;;17.00;44.90;;;;;;5084410;28;20036;-38
2021/06/01 07:49:48;;;;;;;7.45;2.92;;;17.20;44.40;;;;;;5084157;28;20041;-39
2021/06/01 07:52:14;;;;;;;5.05;3.15;;;17.30;43.80;;;;;;5083974;28;20041;-39
2021/06/01 07:54:39;;;;;;;7.75;3.20;;;17.40;43.30;;;;;;5084132;28;20033;-39
2021/06/01 07:57:05;;;;;;;4.05;3.00;;;17.60;42.40;;;;;;5085423;28;20036;-39
2021/06/01 07:59:31;;;;;;;4.72;3.40;;;17.70;42.20;;;;;;5083868;28;20036;-39
2021/06/01 08:01:56;;;;;;;5.90;2.83;;;17.80;41.00;;;;;;5084034;28;20063;-39
2021/06/01 08:04:22;;;;;;;5.97;3.08;;;17.80;41.00;;;;;;5083574;28;20032;-39
2021/06/01 08:06:47;;;;;;;3.75;2.83;;;18.00;41.00;;;;;;5083652;28;20028;-40
2021/06/01 08:09:13;;;;;;;4.97;3.13;;;18.20;41.80;;;;;;5084180;28;20048;-39
2021/06/01 08:11:38;;;;;;;4.05;2.90;;;18.40;40.90;;;;;;5083939;28;20035;-39
2021/06/01 08:14:04;;;;;;;3.47;2.60;;;18.40;39.40;;;;;;5083392;28;20325;-39
2021/06/01 08:16:32;;;;;;;5.03;3.03;;;18.60;39.30;;;;;;5083439;28;20092;-39
2021/06/01 08:19:05;;;;;;;7.35;3.22;;;18.80;40.00;;;;;;5082010;28;20082;-39
2021/06/01 08:24:09;;;;;;;9.18;2.83;;;18.80;38.70;;;;;;5085255;28;20178;-39
2021/06/01 08:26:35;;;;;;;3.22;2.55;;;18.90;39.10;;;;;;5083593;28;20037;-39
2021/06/01 08:29:00;;;;;;;3.70;2.60;;;19.00;38.40;;;;;;5083127;28;20067;-40
2021/06/01 08:31:27;;;;;;;4.70;2.47;;;19.20;37.40;;;;;;5082738;28;20032;-39
2021/06/01 08:33:52;;;;;;;3.50;2.55;;;19.30;38.20;;;;;;5083398;28;20033;-39
2021/06/01 08:36:18;;;;;;;4.45;2.80;;;19.60;37.30;;;;;;5083106;28;20039;-40
2021/06/01 08:38:43;;;;;;;6.15;2.50;;;19.60;36.50;;;;;;5084521;28;20024;-39
2021/06/01 08:41:13;;;;;;;3.55;2.30;;;19.80;36.10;;;;;;5082942;28;20063;-39
2021/06/01 08:43:39;;;;;;;4.88;2.70;;;19.80;36.80;;;;;;5081759;28;20355;-39
2021/06/01 08:46:04;;;;;;;8.55;2.33;;;20.00;38.00;;;;;;5082639;28;20053;-40
2021/06/01 08:48:31;;;;;;;9.48;2.65;;;20.10;36.70;;;;;;5081877;28;20078;-39
2021/06/01 08:50:57;;;;;;;4.25;2.30;;;20.30;37.50;;;;;;5083363;28;20332;-39
2021/06/01 08:53:22;;;;;;;4.68;2.33;;;20.40;36.40;;;;;;5082651;28;20040;-39
2021/06/01 08:55:48;;;;;;;5.22;2.63;;;20.30;33.90;;;;;;5082755;28;20328;-39
2021/06/01 08:58:16;;;;;;;6.03;2.17;;;20.30;31.60;;;;;;5082566;28;20083;-39
2021/06/01 09:00:41;;;;;;;6.68;2.30;;;20.40;33.60;;;;;;5082791;28;20320;-40
2021/06/01 09:03:11;;;;;;;4.82;2.00;;;20.50;34.30;;;;;;5084568;28;20105;-40
2021/06/01 09:05:59;;;;;;;3.87;2.13;;;20.60;32.70;;;;;;5082842;28;20078;-39
2021/06/01 09:08:52;;;;;;;3.42;2.20;;;20.60;32.50;;;;;;5083074;28;20220;-39
2021/06/01 09:22:35;;;;;;;4.60;2.38;;;20.60;32.70;;;;;;5074883;28;20216;-40
2021/06/01 09:25:06;;;;;;;16.58;3.80;;;20.80;35.10;;;;;;5082357;28;20089;-40
2021/06/01 09:27:41;;;;;;;5.28;2.42;;;20.90;35.30;;;;;;5082374;28;20074;-40
2021/06/01 09:30:07;;;;;;;6.22;2.85;;;20.80;34.20;;;;;;5084095;28;20091;-40
2021/06/01 09:32:41;;;;;;;4.10;2.63;;;21.00;33.00;;;;;;5082810;28;20078;-40
2021/06/01 09:35:07;;;;;;;5.03;2.30;;;20.90;32.70;;;;;;5082321;28;20332;-40
2021/06/01 09:37:34;;;;;;;5.38;2.60;;;20.70;32.70;;;;;;5080961;28;20043;-40
2021/06/01 09:40:19;;;;;;;5.97;2.40;;;20.80;32.80;;;;;;5082324;28;20032;-40
2021/06/01 09:42:54;;;;;;;3.90;2.47;;;21.00;33.90;;;;;;5082435;28;20033;-40
2021/06/01 09:45:21;;;;;;;6.72;2.30;;;20.80;32.40;;;;;;5082122;28;20088;-40
2021/06/01 09:47:48;;;;;;;4.05;2.58;;;20.80;32.80;;;;;;5084262;28;20213;-40
2021/06/01 09:50:31;;;;;;;7.85;2.67;;;20.90;32.00;;;;;;5082331;28;20255;-40
2021/06/01 09:53:00;;;;;;;4.47;2.28;;;21.00;35.00;;;;;;5082331;28;20078;-40
2021/06/01 09:55:36;;;;;;;4.13;2.72;;;20.80;32.70;;;;;;5082320;28;20036;-40
2021/06/01 09:58:16;;;;;;;4.45;2.40;;;21.00;34.60;;;;;;5082245;28;20037;-40
2021/06/01 10:00:43;;;;;;;5.88;2.30;;;21.10;33.60;;;;;;5081698;28;20028;-40
2021/06/01 10:03:16;;;;;;;5.15;2.45;;;21.30;34.70;;;;;;5083865;28;20028;-40
2021/06/01 10:05:41;;;;;;;3.70;2.22;;;21.40;35.00;;;;;;5082664;28;20042;-40
2021/06/01 10:08:17;;;;;;;6.55;2.70;;;21.40;34.10;;;;;;5082628;28;20040;-40
2021/06/01 10:10:57;;;;;;;4.95;2.20;;;21.60;36.00;;;;;;5082320;28;20159;-40
2021/06/01 10:13:24;;;;;;;4.47;2.42;;;21.60;33.40;;;;;;5082893;28;20052;-40
2021/06/01 10:15:54;;;;;;;6.00;2.60;;;21.60;32.20;;;;;;5082176;28;20033;-42
2021/06/01 10:18:19;;;;;;;5.20;2.47;;;21.50;32.90;;;;;;5082163;28;20020;-41
2021/06/01 10:20:46;;;;;;;6.07;2.38;;;21.70;33.60;;;;;;5083765;28;20039;-41
2021/06/01 10:23:12;;;;;;;4.05;2.42;;;21.90;34.70;;;;;;5082027;28;20045;-40
2021/06/01 10:25:38;;;;;;;9.85;2.50;;;21.70;33.30;;;;;;5081946;28;20036;-40
2021/06/01 10:28:06;;;;;;;5.57;2.30;;;21.80;34.10;;;;;;5080857;28;20032;-40
2021/06/01 10:30:35;;;;;;;5.35;2.30;;;22.00;34.20;;;;;;5079957;28;20048;-40
2021/06/01 10:33:05;;;;;;;4.75;2.30;;;22.00;30.90;;;;;;5086629;28;20079;-40
2021/06/01 10:35:32;;;;;;;3.83;2.30;;;21.70;32.40;;;;;;5085635;28;20033;-40
2021/06/01 10:43:56;;;;;;;7.40;2.90;;;21.80;32.20;;;;;;5082936;28;20033;-40
2021/06/01 10:51:55;;;;;;;3.80;2.22;;;21.70;33.00;;;;;;5085318;28;20051;-40
2021/06/01 10:54:44;;;;;;;4.68;1.98;;;21.80;32.80;;;;;;5084805;28;20024;-40
2021/06/01 10:57:14;;;;;;;5.68;2.20;;;21.90;32.60;;;;;;5086783;28;20038;-40
2021/06/01 10:59:51;;;;;;;4.15;2.30;;;22.20;32.70;;;;;;5085366;28;20040;-40
2021/06/01 11:02:16;;;;;;;4.68;2.15;;;22.00;33.60;;;;;;5085044;28;20039;-40
2021/06/01 11:05:01;;;;;;;4.53;2.53;;;22.30;32.60;;;;;;5083961;28;20324;-40
2021/06/01 11:07:39;;;;;;;4.57;2.35;;;22.30;32.50;;;;;;5084682;28;20028;-40
2021/06/01 11:10:05;;;;;;;6.10;2.45;;;22.40;32.20;;;;;;5084550;28;20082;-40
2021/06/01 11:12:37;;;;;;;3.28;2.28;;;22.30;31.30;;;;;;5084648;28;20224;-40
2021/06/01 11:15:23;;;;;;;5.18;2.28;;;22.00;29.70;;;;;;5086528;28;20024;-40
2021/06/01 11:17:49;;;;;;;4.85;2.47;;;22.10;30.90;;;;;;5085346;28;20039;-40
2021/06/01 11:20:24;;;;;;;3.15;1.90;;;22.30;33.10;;;;;;5083533;28;20221;-40
2021/06/01 11:23:25;;;;;;;4.03;1.95;;;22.30;32.20;;;;;;5083557;28;20059;-40
2021/06/01 11:33:51;;;;;;;3.00;1.98;;;22.50;30.30;;;;;;5084161;28;20028;-40
2021/06/01 11:36:18;;;;;;;3.67;2.17;;;22.60;33.10;;;;;;5086091;28;20033;-40
2021/06/01 11:38:50;;;;;;;4.88;2.25;;;22.60;31.20;;;;;;5083257;28;20059;-40
2021/06/01 11:43:46;;;;;;;5.90;2.03;;;22.30;31.20;;;;;;5083738;28;20062;-40
2021/06/01 11:46:25;;;;;;;3.75;2.40;;;22.40;31.80;;;;;;5083966;28;20048;-40
2021/06/01 11:51:25;;;;;;;3.83;1.95;;;22.60;31.40;;;;;;5083744;28;20138;-41
2021/06/01 11:53:52;;;;;;;4.65;2.00;;;22.70;31.20;;;;;;5085603;28;20098;-41
2021/06/01 11:57:27;;;;;;;5.28;2.00;;;22.80;32.40;;;;;;5082301;28;20415;-40
2021/06/01 12:18:45;;;;;;;6.25;2.20;;;22.80;29.30;;;;;;5083152;28;20063;-40
2021/06/01 12:21:17;;;;;;;4.73;1.97;;;22.70;29.10;;;;;;5084620;28;20036;-40
2021/06/01 12:23:46;;;;;;;5.30;2.20;;;22.70;30.20;;;;;;5083548;28;20070;-40
2021/06/01 12:26:23;;;;;;;3.10;2.00;;;22.60;30.70;;;;;;5083042;28;20047;-39
2021/06/01 12:32:03;;;;;;;2.88;1.95;;;22.80;31.80;;;;;;5083266;28;20033;-40
2021/06/01 12:43:10;;;;;;;4.53;2.00;;;22.70;30.00;;;;;;5083117;28;20074;-40
2021/06/01 12:46:07;;;;;;;6.40;2.00;;;22.60;31.00;;;;;;5082792;28;20316;-40
2021/06/01 13:14:01;;;;;;;5.00;2.15;;;23.30;31.00;;;;;;5082805;28;20104;-40
2021/06/01 13:19:26;;;;;;;4.00;2.03;;;23.20;29.20;;;;;;5081884;28;20082;-40
2021/06/01 13:21:59;;;;;;;3.58;1.95;;;23.10;29.00;;;;;;5082186;28;20040;-40
2021/06/01 13:38:55;;;;;;;3.47;1.58;;;23.30;31.40;;;;;;5082682;28;20037;-40
2021/06/01 13:46:49;;;;;;;6.75;1.60;;;23.70;32.30;;;;;;5082017;28;20043;-40
2021/06/01 13:49:25;;;;;;;4.43;1.65;;;23.50;28.70;;;;;;5082234;28;20103;-40
2021/06/01 14:00:11;;;;;;;9.77;1.75;;;23.80;31.40;;;;;;5083821;28;20021;-40
2021/06/01 14:05:37;;;;;;;5.05;1.70;;;24.00;31.00;;;;;;5081735;28;20041;-40
2021/06/01 14:22:03;;;;;;;4.18;1.60;;;23.40;27.30;;;;;;5084544;28;20051;-40
2021/06/01 14:30:20;;;;;;;4.32;1.38;;;23.50;28.50;;;;;;5087112;28;20055;-40
2021/06/01 14:38:28;;;;;;;4.13;1.20;;;23.60;29.50;;;;;;5085407;28;20103;-40
2021/06/01 15:22:34;;;;;;;6.50;1.17;;;23.50;27.90;;;;;;5084646;28;20041;-38
2021/06/01 15:49:27;;;;;;;3.65;1.40;;;23.40;27.60;;;;;;5084109;28;20036;-41
2021/06/01 15:52:06;;;;;;;2.70;1.70;;;23.30;27.70;;;;;;5084016;28;20028;-42
2021/06/01 16:30:13;;;;;;;7.00;1.35;;;22.90;28.70;;;;;;5083617;28;20043;-42
2021/06/01 16:43:39;;;;;;;3.85;2.85;;;22.50;28.10;;;;;;5083254;28;20277;-41
2021/06/01 17:05:30;;;;;;;35.08;25.48;;;22.40;29.00;;;;;;5081946;28;20040;-38
2021/06/01 17:11:24;;;;;;;78.72;48.35;;;22.30;28.90;;;;;;5041541;28;20040;-40
2021/06/01 17:13:54;;;;;;;50.78;32.72;;;22.30;30.00;;;;;;5079103;28;20048;-38
2021/06/01 17:16:32;;;;;;;35.92;24.02;;;22.30;30.50;;;;;;5082861;28;20324;-40
2021/06/01 17:24:24;;;;;;;55.40;47.65;;;22.10;30.40;;;;;;5083382;28;20039;-38
2021/06/01 17:34:57;;;;;;;131.02;99.65;;;21.90;30.30;;;;;;5082359;28;20032;-40
2021/06/01 17:37:22;;;;;;;42.08;23.50;;;21.90;29.90;;;;;;5081879;28;20032;-43
2021/06/01 17:39:48;;;;;;;28.08;16.08;;;21.90;30.40;;;;;;5064517;28;20255;-36
2021/06/01 17:42:18;;;;;;;7.82;3.97;;;21.90;30.70;;;;;;5088029;28;20042;-37
2021/06/01 17:44:46;;;;;;;8.02;4.88;;;21.80;30.40;;;;;;5085358;28;20047;-37
2021/06/01 17:47:17;;;;;;;2.97;1.88;;;21.80;30.40;;;;;;5086694;28;20100;-37
2021/06/01 17:49:45;;;;;;;3.92;2.10;;;21.80;29.80;;;;;;5086372;28;20041;-37
2021/06/01 17:52:11;;;;;;;4.18;1.77;;;21.70;29.70;;;;;;5085054;28;20042;-37
2021/06/01 17:54:36;;;;;;;3.92;2.00;;;21.80;29.90;;;;;;5085318;28;20216;-37
2021/06/01 17:57:03;;;;;;;3.08;1.90;;;21.80;30.00;;;;;;5086931;28;20025;-37
2021/06/01 17:59:28;;;;;;;3.60;1.75;;;21.70;30.10;;;;;;5085960;28;20043;-37
2021/06/01 18:01:54;;;;;;;3.92;1.70;;;21.60;30.60;;;;;;5085699;28;20040;-37
2021/06/01 18:04:22;;;;;;;3.95;1.90;;;21.60;30.70;;;;;;5085947;28;20055;-37
2021/06/01 18:06:54;;;;;;;4.25;1.58;;;21.50;30.70;;;;;;5086191;28;20099;-37